createdAt,value
2022-12-18T00:01:24.346Z,95746.41
2022-12-18T00:03:53.074Z,95746.22
2022-12-18T00:06:21.268Z,95757.22
2022-12-18T00:08:49.193Z,95764.38
2022-12-18T00:11:20.087Z,95742.34
2022-12-18T00:13:47.750Z,95762.75
2022-12-18T00:16:17.818Z,95753.75
2022-12-18T00:18:45.045Z,95727.84
2022-12-18T00:21:13.652Z,95764.59
2022-12-18T00:23:43.295Z,95755.38
2022-12-18T00:26:16.694Z,95773.09
2022-12-18T00:28:44.644Z,95776.22
2022-12-18T00:31:13.901Z,95771.06
2022-12-18T00:33:41.413Z,95793.13
2022-12-18T00:36:17.056Z,95784.69
2022-12-18T00:38:45.338Z,95781.81
2022-12-18T00:41:13.787Z,95784.72
2022-12-18T00:43:41.367Z,95789.22
2022-12-18T00:46:08.743Z,95781.63
2022-12-18T00:48:36.731Z,95803.50
2022-12-18T00:51:03.852Z,95796.16
2022-12-18T00:53:30.975Z,95801.63
2022-12-18T00:55:58.075Z,95794.44
2022-12-18T00:58:25.142Z,95806.94
2022-12-18T01:00:52.408Z,95799.16
2022-12-18T01:03:19.370Z,95815.22
2022-12-18T01:05:46.383Z,95798.66
2022-12-18T01:08:13.508Z,95814.97
2022-12-18T01:10:43.584Z,95820.47
2022-12-18T01:13:10.646Z,95805.38
2022-12-18T01:15:37.700Z,95815.59
2022-12-18T01:18:06.870Z,95828.34
2022-12-18T01:20:34.015Z,95822.31
2022-12-18T01:23:01.234Z,95828.47
2022-12-18T01:25:28.292Z,95838.34
2022-12-18T01:27:55.276Z,95838.31
2022-12-18T01:30:22.219Z,95815.47
2022-12-18T01:32:49.117Z,95834.22
2022-12-18T01:35:18.841Z,95848.78
2022-12-18T01:37:47.333Z,95839.78
2022-12-18T01:40:14.312Z,95843.41
2022-12-18T01:42:41.560Z,95848.06
2022-12-18T01:45:17.549Z,95858.06
2022-12-18T01:47:54.192Z,95840.41
2022-12-18T01:50:23.453Z,95851.13
2022-12-18T01:52:57.451Z,95846.06
2022-12-18T01:55:29.019Z,95861.44
2022-12-18T01:57:58.531Z,95838.78
2022-12-18T02:00:25.859Z,95865.06
2022-12-18T02:02:53.742Z,95846.38
2022-12-18T02:05:30.887Z,95838.63
2022-12-18T02:08:24.566Z,95869.63
2022-12-18T02:11:19.879Z,95854.00
2022-12-18T02:13:59.188Z,95869.19
2022-12-18T02:16:34.922Z,95868.16
2022-12-18T02:19:26.237Z,95874.88
2022-12-18T02:21:56.185Z,95878.69
2022-12-18T02:24:44.134Z,95880.03
2022-12-18T02:27:12.850Z,95874.47
2022-12-18T02:29:58.341Z,95879.47
2022-12-18T02:32:32.933Z,95884.41
2022-12-18T02:35:02.275Z,95859.00
2022-12-18T02:37:32.451Z,95869.00
2022-12-18T02:40:04.839Z,95864.50
2022-12-18T02:42:33.727Z,95875.25
2022-12-18T02:45:02.148Z,95880.88
2022-12-18T02:47:39.257Z,95887.13
2022-12-18T02:50:16.513Z,95890.53
2022-12-18T02:53:05.979Z,95885.75
2022-12-18T02:55:33.670Z,95895.06
2022-12-18T02:58:21.984Z,95879.72
2022-12-18T03:01:19.716Z,95891.81
2022-12-18T03:03:58.534Z,95874.72
2022-12-18T03:06:38.307Z,95898.53
2022-12-18T03:09:18.733Z,95892.75
2022-12-18T03:12:10.610Z,95906.09
2022-12-18T03:14:39.640Z,95898.53
2022-12-18T03:17:13.485Z,95881.81
2022-12-18T03:19:42.453Z,95912.91
2022-12-18T03:22:11.173Z,95922.47
2022-12-18T03:24:47.392Z,95912.03
2022-12-18T03:27:19.320Z,95882.72
2022-12-18T03:29:54.388Z,95920.53
2022-12-18T03:32:30.604Z,95897.25
2022-12-18T03:35:03.748Z,95931.09
2022-12-18T03:37:34.122Z,95923.63
2022-12-18T03:40:01.360Z,95935.09
2022-12-18T03:42:38.093Z,95939.03
2022-12-18T03:45:34.163Z,95955.88
2022-12-18T03:48:24.519Z,95923.97
2022-12-18T03:50:51.259Z,95961.47
2022-12-18T03:53:27.455Z,95941.75
2022-12-18T03:55:56.212Z,95965.31
2022-12-18T03:58:30.014Z,95972.16
2022-12-18T04:01:10.151Z,95955.44
2022-12-18T04:03:39.459Z,95977.25
2022-12-18T04:06:08.757Z,95962.25
2022-12-18T04:08:36.194Z,95966.69
2022-12-18T04:11:07.013Z,95957.19
2022-12-18T04:13:39.898Z,95969.31
2022-12-18T04:16:12.185Z,95974.53
2022-12-18T04:18:42.602Z,95985.66
2022-12-18T04:21:11.220Z,95982.81
2022-12-18T04:23:38.881Z,96000.31
2022-12-18T04:26:07.649Z,95993.75
2022-12-18T04:28:50.004Z,95988.84
2022-12-18T04:31:17.057Z,95986.22
2022-12-18T04:33:44.181Z,96008.81
2022-12-18T04:36:13.357Z,96010.72
2022-12-18T04:38:41.482Z,96012.25
2022-12-18T04:41:13.816Z,95997.09
2022-12-18T04:43:42.765Z,96015.84
2022-12-18T04:46:10.617Z,96025.03
2022-12-18T04:48:38.299Z,96006.28
2022-12-18T04:51:08.522Z,96016.13
2022-12-18T04:53:35.741Z,96024.16
2022-12-18T04:56:08.244Z,96036.28
2022-12-18T04:58:35.504Z,96043.84
2022-12-18T05:01:02.998Z,96043.19
2022-12-18T05:03:30.602Z,96033.44
2022-12-18T05:05:57.661Z,96039.47
2022-12-18T05:08:24.722Z,96033.34
2022-12-18T05:11:00.214Z,96054.31
2022-12-18T05:13:27.825Z,96055.69
2022-12-18T05:15:55.805Z,96058.31
2022-12-18T05:18:27.218Z,96071.91
2022-12-18T05:20:54.840Z,96073.94
2022-12-18T05:23:23.657Z,96071.22
2022-12-18T05:26:01.652Z,96084.03
2022-12-18T05:28:30.456Z,96086.41
2022-12-18T05:30:59.853Z,96092.84
2022-12-18T05:33:27.902Z,96079.34
2022-12-18T05:35:59.790Z,96092.56
2022-12-18T05:38:28.817Z,96094.47
2022-12-18T05:40:55.784Z,96101.88
2022-12-18T05:43:26.208Z,96097.31
2022-12-18T05:45:54.321Z,96099.59
2022-12-18T05:48:22.082Z,96110.97
2022-12-18T05:50:52.687Z,96104.94
2022-12-18T05:53:21.390Z,96095.25
2022-12-18T05:55:48.939Z,96111.03
2022-12-18T05:58:16.917Z,96103.44
2022-12-18T06:00:46.898Z,96117.91
2022-12-18T06:03:14.739Z,96119.41
2022-12-18T06:05:44.465Z,96133.94
2022-12-18T06:08:11.924Z,96139.59
2022-12-18T06:10:38.929Z,96121.28
2022-12-18T06:13:06.766Z,96141.06
2022-12-18T06:15:34.578Z,96137.78
2022-12-18T06:18:02.478Z,96136.66
2022-12-18T06:20:33.386Z,96127.16
2022-12-18T06:23:01.186Z,96137.22
2022-12-18T06:25:28.296Z,96143.03
2022-12-18T06:27:55.601Z,96135.28
2022-12-18T06:30:22.864Z,96144.19
2022-12-18T06:32:56.294Z,96145.16
2022-12-18T06:35:24.373Z,96142.56
2022-12-18T06:37:51.840Z,96146.41
2022-12-18T06:40:19.541Z,96160.22
2022-12-18T06:42:46.471Z,96154.00
2022-12-18T06:45:16.546Z,96169.03
2022-12-18T06:47:43.679Z,96161.59
2022-12-18T06:50:11.025Z,96167.81
2022-12-18T06:52:38.196Z,96169.53
2022-12-18T06:55:06.141Z,96184.94
2022-12-18T06:57:36.466Z,96171.59
2022-12-18T07:00:05.450Z,96181.09
2022-12-18T07:02:33.173Z,96179.91
2022-12-18T07:05:00.181Z,96156.97
2022-12-18T07:07:27.258Z,96184.75
2022-12-18T07:09:54.300Z,96135.09
2022-12-18T07:12:21.275Z,96183.09
2022-12-18T07:14:48.201Z,96202.25
2022-12-18T07:17:15.173Z,96190.00
2022-12-18T07:19:42.213Z,96189.13
2022-12-18T07:22:09.722Z,96195.50
2022-12-18T07:24:37.101Z,96009.88
2022-12-18T07:27:04.352Z,96203.34
2022-12-18T07:29:31.932Z,96196.16
2022-12-18T07:31:58.889Z,96200.63
2022-12-18T07:34:25.895Z,96192.13
2022-12-18T07:36:53.162Z,96200.84
2022-12-18T07:39:20.141Z,96183.31
2022-12-18T07:42:07.337Z,96200.56
2022-12-18T07:44:34.561Z,96224.69
2022-12-18T07:47:09.007Z,96223.03
2022-12-18T07:49:38.938Z,96198.19
2022-12-18T07:52:06.022Z,96219.22
2022-12-18T07:54:32.998Z,96237.38
2022-12-18T07:57:00.923Z,96191.06
2022-12-18T07:59:27.858Z,96240.84
2022-12-18T08:01:55.021Z,96223.75
2022-12-18T08:04:22.015Z,96232.41
2022-12-18T08:06:49.312Z,96212.47
2022-12-18T08:09:16.323Z,96216.66
2022-12-18T08:11:43.661Z,96263.88
2022-12-18T08:14:10.915Z,96238.72
2022-12-18T08:16:38.047Z,96255.78
2022-12-18T08:19:05.065Z,96265.38
2022-12-18T08:21:33.009Z,96263.22
2022-12-18T08:24:01.922Z,96276.00
2022-12-18T08:26:31.327Z,96282.41
2022-12-18T08:29:00.610Z,96231.88
2022-12-18T08:31:28.857Z,96282.81
2022-12-18T08:33:56.807Z,96286.44
2022-12-18T08:36:27.417Z,96301.19
2022-12-18T08:38:55.020Z,96292.44
2022-12-18T08:41:22.594Z,96267.75
2022-12-18T08:44:09.101Z,96284.84
2022-12-18T08:46:39.185Z,96288.16
2022-12-18T08:49:08.107Z,96296.91
2022-12-18T08:51:35.677Z,96298.06
2022-12-18T08:54:03.438Z,96301.19
2022-12-18T08:56:32.092Z,96304.75
2022-12-18T08:59:00.431Z,96281.16
2022-12-18T09:01:39.629Z,96295.63
2022-12-18T09:04:07.057Z,96267.19
2022-12-18T09:06:35.239Z,96285.69
2022-12-18T09:09:04.436Z,96278.03
2022-12-18T09:11:35.999Z,96286.38
2022-12-18T09:14:03.053Z,96261.91
2022-12-18T09:16:32.723Z,96291.06
2022-12-18T09:19:41.797Z,96287.97
2022-12-18T09:22:10.698Z,96269.94
2022-12-18T09:24:37.743Z,96241.53
2022-12-18T09:27:04.889Z,96251.44
2022-12-18T09:29:32.057Z,96275.59
2022-12-18T09:32:09.718Z,96264.94
2022-12-18T09:34:37.291Z,96294.44
2022-12-18T09:37:04.175Z,96280.63
2022-12-18T09:39:31.122Z,96290.50
2022-12-18T09:41:59.973Z,96290.72
2022-12-18T09:44:32.165Z,96287.03
2022-12-18T09:47:24.495Z,96286.53
2022-12-18T09:49:55.857Z,96297.06
2022-12-18T09:52:57.547Z,96291.19
2022-12-18T09:55:41.658Z,96298.84
2022-12-18T09:58:26.575Z,96290.91
2022-12-18T10:00:55.413Z,96274.03
2022-12-18T10:03:22.857Z,96266.97
2022-12-18T10:06:08.883Z,96281.25
2022-12-18T10:08:54.503Z,96288.72
2022-12-18T10:11:35.929Z,96278.25
2022-12-18T10:14:42.473Z,96253.78
2022-12-18T10:17:34.498Z,96287.41
2022-12-18T10:20:26.578Z,96293.66
2022-12-18T10:23:17.931Z,96285.97
2022-12-18T10:25:56.979Z,96287.19
2022-12-18T10:28:24.774Z,96282.91
2022-12-18T10:30:51.735Z,96280.13
2022-12-18T10:33:22.696Z,96292.56
2022-12-18T10:35:53.862Z,96291.16
2022-12-18T10:38:23.918Z,96290.78
2022-12-18T10:41:00.626Z,96279.50
2022-12-18T10:43:39.812Z,96285.41
2022-12-18T10:46:10.027Z,96288.31
2022-12-18T10:48:53.087Z,96281.03
2022-12-18T10:51:31.688Z,96218.03
2022-12-18T10:54:14.493Z,96252.28
2022-12-18T10:56:42.556Z,96223.50
2022-12-18T10:59:14.553Z,96258.13
2022-12-18T11:01:56.581Z,96269.81
2022-12-18T11:04:27.248Z,96274.22
2022-12-18T11:07:06.644Z,96245.00
2022-12-18T11:09:37.958Z,96284.81
2022-12-18T11:12:16.854Z,96259.50
2022-12-18T11:14:48.268Z,96275.91
2022-12-18T11:17:36.553Z,96271.78
2022-12-18T11:20:10.667Z,96259.94
2022-12-18T11:22:39.522Z,96258.56
2022-12-18T11:25:35.621Z,96283.41
2022-12-18T11:28:44.226Z,96276.03
2022-12-18T11:31:23.349Z,96284.38
2022-12-18T11:34:27.329Z,96258.63
2022-12-18T11:36:47.808Z,96272.63
2022-12-18T11:39:44.038Z,96271.63
2022-12-18T11:42:36.857Z,96287.69
2022-12-18T11:45:30.173Z,96289.81
2022-12-18T11:48:13.862Z,96289.66
2022-12-18T11:51:01.466Z,96298.31
2022-12-18T11:53:31.478Z,96290.09
2022-12-18T11:56:03.755Z,96271.56
2022-12-18T11:58:40.338Z,96292.47
2022-12-18T12:01:15.459Z,96287.31
2022-12-18T12:04:16.119Z,96256.47
2022-12-18T12:07:15.995Z,96283.97
2022-12-18T12:10:08.931Z,96281.41
2022-12-18T12:12:52.477Z,96284.50
2022-12-18T12:15:38.901Z,96282.34
2022-12-18T12:18:21.320Z,96280.59
2022-12-18T12:21:42.175Z,96282.34
2022-12-18T12:24:43.261Z,96275.56
2022-12-18T12:27:28.373Z,96260.94
2022-12-18T12:30:14.171Z,96286.13
2022-12-18T12:33:11.514Z,96273.88
2022-12-18T12:35:41.829Z,96287.97
2022-12-18T12:38:15.847Z,96292.38
2022-12-18T12:40:55.272Z,96292.84
2022-12-18T12:43:49.391Z,96268.66
2022-12-18T12:46:22.379Z,96284.91
2022-12-18T12:49:08.849Z,96282.19
2022-12-18T12:52:06.553Z,96276.88
2022-12-18T12:54:34.907Z,96287.66
2022-12-18T12:57:11.245Z,96295.47
2022-12-18T12:59:52.200Z,96295.66
2022-12-18T13:02:24.207Z,96288.66
2022-12-18T13:05:14.771Z,96302.53
2022-12-18T13:08:01.896Z,96289.66
2022-12-18T13:10:38.851Z,96307.91
2022-12-18T13:13:11.095Z,96289.19
2022-12-18T13:15:46.261Z,96304.44
2022-12-18T13:18:54.291Z,96316.31
2022-12-18T13:21:28.370Z,96326.81
2022-12-18T13:23:56.761Z,96330.66
2022-12-18T13:26:28.764Z,96326.44
2022-12-18T13:28:57.632Z,96297.56
2022-12-18T13:31:24.896Z,96336.09
2022-12-18T13:34:26.158Z,96303.19
2022-12-18T13:36:56.598Z,96321.66
2022-12-18T13:39:32.784Z,96334.34
2022-12-18T13:42:07.887Z,96333.47
2022-12-18T13:44:46.326Z,96332.72
2022-12-18T13:47:34.726Z,96330.69
2022-12-18T13:50:11.019Z,96324.53
2022-12-18T13:52:40.765Z,96350.31
2022-12-18T13:55:19.114Z,96349.56
2022-12-18T13:57:47.122Z,96322.72
2022-12-18T14:00:25.795Z,96354.28
2022-12-18T14:02:53.579Z,96343.06
2022-12-18T14:05:37.196Z,96361.84
2022-12-18T14:08:15.999Z,96355.28
2022-12-18T14:10:48.657Z,96356.50
2022-12-18T14:13:29.506Z,96350.06
2022-12-18T14:15:57.444Z,96338.22
2022-12-18T14:18:32.017Z,96362.16
2022-12-18T14:21:34.346Z,96374.94
2022-12-18T14:24:23.285Z,96370.00
2022-12-18T14:26:51.740Z,96365.59
2022-12-18T14:29:27.600Z,96368.44
2022-12-18T14:32:16.515Z,96362.63
2022-12-18T14:34:51.424Z,96358.88
2022-12-18T14:37:25.475Z,96387.75
2022-12-18T14:40:11.483Z,96381.97
2022-12-18T14:42:39.959Z,96352.56
2022-12-18T14:45:41.073Z,96379.25
2022-12-18T14:48:42.640Z,96377.50
2022-12-18T14:51:24.825Z,96371.00
2022-12-18T14:54:01.594Z,96371.06
2022-12-18T14:56:37.148Z,96350.25
2022-12-18T14:59:07.046Z,96352.31
2022-12-18T15:01:40.567Z,96387.81
2022-12-18T15:04:30.493Z,96342.53
2022-12-18T15:07:24.578Z,96361.94
2022-12-18T15:10:13.241Z,96390.06
2022-12-18T15:12:50.653Z,96377.19
2022-12-18T15:15:48.161Z,96382.88
2022-12-18T15:18:18.875Z,96386.75
2022-12-18T15:21:00.706Z,96397.22
2022-12-18T15:23:34.011Z,96405.34
2022-12-18T15:26:11.477Z,96402.75
2022-12-18T15:29:04.284Z,96378.78
2022-12-18T15:31:32.765Z,96407.50
2022-12-18T15:34:11.358Z,96407.50
2022-12-18T15:37:03.235Z,96385.06
2022-12-18T15:39:30.394Z,96414.78
2022-12-18T15:42:15.906Z,96419.34
2022-12-18T15:44:44.694Z,96418.19
2022-12-18T15:47:14.011Z,96432.06
2022-12-18T15:49:40.974Z,96433.56
2022-12-18T15:52:14.498Z,96425.84
2022-12-18T15:54:59.998Z,96424.53
2022-12-18T15:57:29.385Z,96419.06
2022-12-18T16:00:00.386Z,96429.44
2022-12-18T16:02:29.025Z,96402.22
2022-12-18T16:04:56.116Z,96442.25
2022-12-18T16:07:26.056Z,96453.31
2022-12-18T16:09:55.444Z,96463.72
2022-12-18T16:12:25.381Z,96449.88
2022-12-18T16:14:52.351Z,96447.22
2022-12-18T16:17:29.730Z,96427.19
2022-12-18T16:20:05.655Z,96451.75
2022-12-18T16:22:33.205Z,96465.44
2022-12-18T16:25:00.156Z,96463.63
2022-12-18T16:27:27.314Z,96447.66
2022-12-18T16:29:54.387Z,96468.09
2022-12-18T16:32:23.620Z,96454.28
2022-12-18T16:34:52.015Z,96474.91
2022-12-18T16:37:19.141Z,96474.09
2022-12-18T16:39:46.839Z,96477.94
2022-12-18T16:42:17.902Z,96468.19
2022-12-18T16:44:46.674Z,96487.16
2022-12-18T16:47:15.701Z,96484.78
2022-12-18T16:49:45.385Z,96490.81
2022-12-18T16:52:26.822Z,96492.50
2022-12-18T16:54:53.880Z,96507.00
2022-12-18T16:57:23.541Z,96515.25
2022-12-18T16:59:53.103Z,96520.06
2022-12-18T17:02:25.937Z,96516.78
2022-12-18T17:04:56.221Z,96526.88
2022-12-18T17:07:24.103Z,96525.88
2022-12-18T17:09:51.319Z,96526.38
2022-12-18T17:12:18.494Z,96542.88
2022-12-18T17:14:45.438Z,96536.28
2022-12-18T17:17:21.382Z,96544.38
2022-12-18T17:19:49.675Z,96545.00
2022-12-18T17:22:16.620Z,96545.69
2022-12-18T17:24:43.680Z,96542.69
2022-12-18T17:27:12.189Z,96543.38
2022-12-18T17:30:07.089Z,96564.16
2022-12-18T17:33:10.987Z,96566.47
2022-12-18T17:35:42.397Z,96545.34
2022-12-18T17:38:09.494Z,96569.28
2022-12-18T17:40:39.706Z,96562.84
2022-12-18T17:43:11.585Z,96555.56
2022-12-18T17:45:40.198Z,96552.63
2022-12-18T17:48:09.251Z,96529.84
2022-12-18T17:50:48.562Z,96559.56
2022-12-18T17:53:15.535Z,96532.81
2022-12-18T17:55:42.535Z,96552.09
2022-12-18T17:58:09.830Z,96528.84
2022-12-18T18:00:39.310Z,96543.38
2022-12-18T18:03:06.792Z,96555.09
2022-12-18T18:05:34.022Z,96543.69
2022-12-18T18:08:01.075Z,96546.03
2022-12-18T18:10:28.167Z,96544.53
2022-12-18T18:13:13.599Z,96544.38
2022-12-18T18:15:41.159Z,96552.59
2022-12-18T18:18:08.597Z,96556.72
2022-12-18T18:20:40.845Z,96566.97
2022-12-18T18:23:09.343Z,96559.88
2022-12-18T18:25:37.741Z,96536.28
2022-12-18T18:28:05.093Z,96556.25
2022-12-18T18:30:32.406Z,96552.09
2022-12-18T18:33:00.914Z,96552.75
2022-12-18T18:35:52.992Z,96568.75
2022-12-18T18:38:16.189Z,96568.75
2022-12-18T18:40:43.288Z,96541.03
2022-12-18T18:43:12.375Z,96570.91
2022-12-18T18:45:39.286Z,96562.94
2022-12-18T18:48:07.526Z,96594.63
2022-12-18T18:50:35.606Z,96576.94
2022-12-18T18:53:03.166Z,96596.91
2022-12-18T18:55:33.686Z,96587.19
2022-12-18T18:58:01.975Z,96557.50
2022-12-18T19:00:32.604Z,96601.91
2022-12-18T19:03:00.871Z,96566.03
2022-12-18T19:05:28.148Z,96615.34
2022-12-18T19:07:56.408Z,96576.00
2022-12-18T19:10:23.464Z,96616.75
2022-12-18T19:13:24.927Z,96626.31
2022-12-18T19:16:09.534Z,96619.00
2022-12-18T19:18:38.638Z,96614.00
2022-12-18T19:21:06.984Z,96601.94
2022-12-18T19:23:34.742Z,96629.53
2022-12-18T19:29:06.190Z,96632.47
2022-12-18T19:31:36.366Z,96626.91
2022-12-18T19:34:06.748Z,96634.81
2022-12-18T19:36:37.270Z,96636.94
2022-12-18T19:39:11.235Z,96622.19
2022-12-18T19:41:39.926Z,96640.25
2022-12-18T19:44:08.675Z,96640.91
2022-12-18T19:46:36.243Z,96644.78
2022-12-18T19:49:07.762Z,96642.47
2022-12-18T19:51:36.218Z,96661.09
2022-12-18T19:54:04.502Z,96645.41
2022-12-18T19:56:33.637Z,96662.88
2022-12-18T19:59:01.401Z,96653.81
2022-12-18T20:01:29.679Z,96652.34
2022-12-18T20:03:58.066Z,96661.31
2022-12-18T20:06:33.183Z,96664.81
2022-12-18T20:09:06.357Z,96664.97
2022-12-18T20:11:41.200Z,96664.81
2022-12-18T20:14:14.393Z,96647.75
2022-12-18T20:16:43.415Z,96670.69
2022-12-18T20:19:13.068Z,96667.34
2022-12-18T20:21:41.644Z,96677.69
2022-12-18T20:24:09.095Z,96664.56
2022-12-18T20:26:37.306Z,96654.81
2022-12-18T20:29:06.859Z,96674.47
2022-12-18T20:31:33.944Z,96683.09
2022-12-18T20:34:02.605Z,96679.50
2022-12-18T20:36:32.853Z,96690.28
2022-12-18T20:39:02.613Z,96684.81
2022-12-18T20:41:36.052Z,96704.63
2022-12-18T20:44:22.977Z,96714.56
2022-12-18T20:46:56.855Z,96704.66
2022-12-18T20:49:25.914Z,96714.31
2022-12-18T20:51:54.642Z,96716.66
2022-12-18T20:54:24.131Z,96727.81
2022-12-18T20:56:50.898Z,96719.50
2022-12-18T20:59:18.321Z,96678.91
2022-12-18T21:01:48.277Z,96722.94
2022-12-18T21:04:18.010Z,96698.00
2022-12-18T21:06:50.943Z,96700.56
2022-12-18T21:09:19.537Z,96708.59
2022-12-18T21:12:05.060Z,96701.34
2022-12-18T21:14:32.541Z,96697.09
2022-12-18T21:17:02.903Z,96718.22
2022-12-18T21:19:30.093Z,96721.13
2022-12-18T21:21:58.016Z,96727.97
2022-12-18T21:24:25.604Z,96702.66
2022-12-18T21:26:52.633Z,96701.41
2022-12-18T21:29:22.751Z,96713.91
2022-12-18T21:31:50.879Z,96725.22
2022-12-18T21:34:21.608Z,96720.63
2022-12-18T21:36:49.780Z,96725.22
2022-12-18T21:39:16.892Z,96693.00
2022-12-18T21:42:03.078Z,96720.75
2022-12-18T21:44:30.846Z,96732.34
2022-12-18T21:47:12.299Z,96703.53
2022-12-18T21:49:49.381Z,96702.72
2022-12-18T21:52:17.257Z,96723.84
2022-12-18T21:54:44.391Z,96714.09
2022-12-18T21:57:13.985Z,96727.56
2022-12-18T21:59:43.734Z,96733.91
2022-12-18T22:02:20.047Z,96708.13
2022-12-18T22:04:48.473Z,96728.16
2022-12-18T22:07:16.861Z,96713.75
2022-12-18T22:09:44.320Z,96722.75
2022-12-18T22:12:33.698Z,96718.59
2022-12-18T22:15:03.329Z,96708.25
2022-12-18T22:17:30.938Z,96720.81
2022-12-18T22:19:58.062Z,96729.25
2022-12-18T22:22:25.532Z,96740.03
2022-12-18T22:24:52.628Z,96717.41
2022-12-18T22:27:19.718Z,96718.78
2022-12-18T22:30:05.300Z,96718.47
2022-12-18T22:32:35.264Z,96726.44
2022-12-18T22:35:08.292Z,96697.84
2022-12-18T22:37:41.332Z,96711.63
2022-12-18T22:40:23.713Z,96718.56
2022-12-18T22:42:53.223Z,96704.06
2022-12-18T22:45:20.756Z,96691.06
2022-12-18T22:47:47.775Z,96685.81
2022-12-18T22:50:15.063Z,96690.59
2022-12-18T22:52:42.423Z,96698.75
2022-12-18T22:55:09.568Z,96703.22
2022-12-18T22:57:36.722Z,96698.63
2022-12-18T23:00:06.479Z,96675.72
2022-12-18T23:02:33.532Z,96659.16
2022-12-18T23:05:00.674Z,96693.28
2022-12-18T23:07:27.766Z,96705.06
2022-12-18T23:10:00.783Z,96696.34
2022-12-18T23:12:29.859Z,96698.22
2022-12-18T23:15:00.041Z,96717.03
2022-12-18T23:17:27.078Z,96701.78
2022-12-18T23:19:54.101Z,96713.09
2022-12-18T23:22:21.251Z,96696.06
2022-12-18T23:24:48.234Z,96720.03
2022-12-18T23:27:15.402Z,96709.50
2022-12-18T23:29:42.563Z,96720.88
2022-12-18T23:32:12.358Z,96727.06
2022-12-18T23:34:39.518Z,96729.06
2022-12-18T23:37:06.605Z,96721.59
2022-12-18T23:39:33.579Z,96714.59
2022-12-18T23:42:00.935Z,96652.44
2022-12-18T23:44:28.262Z,96730.72
2022-12-18T23:46:56.270Z,96728.47
2022-12-18T23:49:23.406Z,96714.25
2022-12-18T23:51:50.620Z,96691.75
2022-12-18T23:54:17.731Z,96733.72
2022-12-18T23:57:00.771Z,96716.28
2022-12-18T23:59:27.717Z,96728.81
